createdAt,value
2018-03-23T00:03:12.376Z,71.20
2018-03-23T00:05:39.986Z,71.10
2018-03-23T00:08:07.559Z,71.40
2018-03-23T00:10:35.798Z,71.70
2018-03-23T00:13:04.101Z,71.80
2018-03-23T00:15:32.443Z,72.10
2018-03-23T00:18:00.033Z,72.10
2018-03-23T00:20:27.584Z,72.20
2018-03-23T00:22:55.169Z,72.20
2018-03-23T00:25:23.531Z,72.50
2018-03-23T00:27:51.110Z,72.60
2018-03-23T00:30:18.703Z,72.50
2018-03-23T00:32:46.270Z,72.80
2018-03-23T00:35:14.590Z,73.00
2018-03-23T00:37:42.156Z,73.00
2018-03-23T00:40:10.050Z,72.80
2018-03-23T00:42:38.366Z,73.10
2018-03-23T00:45:06.685Z,73.00
2018-03-23T00:47:34.634Z,73.10
2018-03-23T00:50:02.215Z,73.30
2018-03-23T00:52:29.785Z,73.50
2018-03-23T00:54:58.239Z,73.20
2018-03-23T00:57:26.603Z,73.20
2018-03-23T00:59:54.138Z,73.20
2018-03-23T01:02:22.051Z,73.30
2018-03-23T01:04:49.618Z,73.30
2018-03-23T01:07:17.176Z,73.10
2018-03-23T01:09:44.821Z,73.50
2018-03-23T01:12:12.357Z,73.60
2018-03-23T01:14:39.902Z,73.60
2018-03-23T01:17:07.506Z,73.60
2018-03-23T01:19:35.514Z,73.50
2018-03-23T01:22:03.439Z,73.30
2018-03-23T01:24:31.026Z,73.80
2018-03-23T01:26:58.581Z,74.10
2018-03-23T01:29:26.194Z,74.20
2018-03-23T01:31:53.745Z,74.20
2018-03-23T01:34:21.298Z,73.90
2018-03-23T01:36:48.873Z,74.20
2018-03-23T01:39:16.448Z,74.60
2018-03-23T01:41:44.055Z,74.90
2018-03-23T01:44:11.642Z,75.10
2018-03-23T01:46:39.319Z,74.90
2018-03-23T01:49:07.264Z,75.10
2018-03-23T01:51:35.650Z,75.30
2018-03-23T01:54:03.464Z,75.00
2018-03-23T01:56:31.051Z,75.70
2018-03-23T01:58:58.625Z,75.70
2018-03-23T02:01:26.273Z,76.00
2018-03-23T02:03:54.564Z,75.80
2018-03-23T02:06:22.167Z,75.80
2018-03-23T02:08:49.727Z,75.90
2018-03-23T02:11:17.352Z,75.50
2018-03-23T02:13:44.914Z,74.90
2018-03-23T02:16:12.557Z,75.20
2018-03-23T02:18:40.130Z,75.60
2018-03-23T02:21:13.986Z,75.30
2018-03-23T02:23:41.604Z,75.40
2018-03-23T02:26:09.923Z,75.10
2018-03-23T02:28:38.277Z,75.00
2018-03-23T02:31:06.680Z,74.90
2018-03-23T02:33:34.250Z,74.70
2018-03-23T02:36:02.574Z,74.90
2018-03-23T02:38:30.203Z,74.90
2018-03-23T02:40:57.768Z,74.60
2018-03-23T02:43:26.183Z,74.70
2018-03-23T02:45:54.490Z,74.90
2018-03-23T02:48:23.033Z,74.90
2018-03-23T02:50:50.609Z,74.80
2018-03-23T02:53:18.931Z,74.20
2018-03-23T02:55:46.516Z,74.30
2018-03-23T02:58:14.088Z,74.40
2018-03-23T03:00:42.437Z,74.70
2018-03-23T03:03:09.974Z,74.70
2018-03-23T03:05:38.377Z,74.90
2018-03-23T03:08:06.823Z,74.80
2018-03-23T03:10:34.362Z,74.40
2018-03-23T03:13:01.994Z,74.40
2018-03-23T03:15:30.304Z,73.90
2018-03-23T03:17:57.898Z,73.90
2018-03-23T03:20:26.212Z,74.00
2018-03-23T03:22:53.790Z,74.00
2018-03-23T03:25:22.106Z,73.80
2018-03-23T03:27:49.790Z,74.50
2018-03-23T03:30:18.102Z,73.50
2018-03-23T03:32:46.451Z,73.50
2018-03-23T03:35:14.018Z,73.40
2018-03-23T03:37:41.562Z,73.20
2018-03-23T03:40:09.146Z,73.30
2018-03-23T03:42:37.727Z,73.60
2018-03-23T03:45:06.684Z,73.50
2018-03-23T03:47:35.001Z,73.50
2018-03-23T03:50:04.090Z,73.50
2018-03-23T03:52:31.681Z,73.50
2018-03-23T03:54:59.989Z,73.60
2018-03-23T03:57:27.572Z,73.50
2018-03-23T03:59:55.103Z,73.70
2018-03-23T04:02:22.676Z,73.10
2018-03-23T04:04:50.229Z,73.10
2018-03-23T04:07:17.845Z,73.20
2018-03-23T04:09:45.406Z,73.30
2018-03-23T04:12:13.054Z,73.60
2018-03-23T04:14:41.365Z,73.60
2018-03-23T04:17:08.920Z,73.30
2018-03-23T04:19:37.433Z,73.30
2018-03-23T04:22:04.949Z,73.30
2018-03-23T04:24:32.529Z,73.40
2018-03-23T04:27:00.108Z,73.30
2018-03-23T04:29:28.475Z,73.30
2018-03-23T04:31:56.023Z,73.70
2018-03-23T04:34:23.582Z,73.50
2018-03-23T04:36:51.219Z,73.20
2018-03-23T04:39:18.763Z,73.20
2018-03-23T04:41:47.196Z,73.60
2018-03-23T04:44:14.733Z,73.60
2018-03-23T04:46:42.299Z,73.50
2018-03-23T04:49:09.844Z,73.60
2018-03-23T04:51:37.871Z,74.10
2018-03-23T04:54:05.757Z,75.00
2018-03-23T04:56:34.101Z,75.40
2018-03-23T04:59:01.688Z,75.30
2018-03-23T05:01:29.267Z,76.00
2018-03-23T05:03:56.857Z,76.20
2018-03-23T05:06:25.243Z,76.00
2018-03-23T05:08:53.598Z,76.50
2018-03-23T05:11:21.931Z,76.50
2018-03-23T05:13:49.515Z,76.60
2018-03-23T05:16:17.069Z,76.60
2018-03-23T05:18:44.760Z,76.80
2018-03-23T05:21:13.110Z,76.70
2018-03-23T05:23:40.659Z,76.70
2018-03-23T05:26:08.271Z,76.50
2018-03-23T05:28:36.484Z,76.80
2018-03-23T05:31:04.070Z,77.00
2018-03-23T05:33:31.637Z,76.90
2018-03-23T05:35:59.278Z,77.40
2018-03-23T05:38:26.832Z,77.50
2018-03-23T05:40:54.749Z,77.60
2018-03-23T05:43:22.318Z,77.60
2018-03-23T05:45:49.878Z,77.90
2018-03-23T05:48:17.439Z,77.60
2018-03-23T05:50:44.995Z,77.70
2018-03-23T05:53:13.360Z,77.80
2018-03-23T05:55:40.906Z,77.80
2018-03-23T05:58:08.481Z,77.60
2018-03-23T06:00:36.572Z,77.30
2018-03-23T06:03:04.258Z,77.30
2018-03-23T06:05:31.810Z,76.80
2018-03-23T06:07:59.401Z,76.50
2018-03-23T06:10:26.991Z,76.10
2018-03-23T06:12:54.625Z,76.10
2018-03-23T06:15:22.183Z,76.10
2018-03-23T06:17:49.774Z,75.90
2018-03-23T06:20:18.248Z,75.60
2018-03-23T06:22:45.844Z,75.60
2018-03-23T06:25:13.403Z,75.90
2018-03-23T06:27:40.997Z,75.10
2018-03-23T06:30:08.600Z,74.80
2018-03-23T06:32:37.712Z,73.90
2018-03-23T06:35:05.632Z,74.00
2018-03-23T06:37:33.982Z,73.90
2018-03-23T06:40:01.588Z,74.60
2018-03-23T06:42:29.196Z,73.70
2018-03-23T06:44:57.580Z,73.60
2018-03-23T06:47:25.226Z,73.60
2018-03-23T06:49:52.814Z,73.60
2018-03-23T06:52:20.368Z,73.90
2018-03-23T06:54:48.714Z,73.70
2018-03-23T06:57:16.270Z,73.60
2018-03-23T06:59:43.914Z,73.90
2018-03-23T07:02:11.570Z,73.80
2018-03-23T07:04:39.922Z,73.40
2018-03-23T07:07:08.262Z,73.20
2018-03-23T07:09:37.363Z,73.20
2018-03-23T07:14:57.793Z,73.30
2018-03-23T07:17:26.174Z,74.00
2018-03-23T07:19:53.750Z,74.20
2018-03-23T07:25:07.782Z,73.80
2018-03-23T07:27:35.695Z,73.20
2018-03-23T07:30:03.374Z,72.60
2018-03-23T07:32:31.021Z,72.90
2018-03-23T07:34:58.592Z,73.00
2018-03-23T07:37:26.902Z,73.20
2018-03-23T07:39:54.595Z,73.20
2018-03-23T07:42:22.939Z,73.10
2018-03-23T07:44:50.498Z,73.10
2018-03-23T07:47:18.847Z,72.40
2018-03-23T07:49:46.408Z,72.60
2018-03-23T07:52:14.008Z,72.50
2018-03-23T07:54:41.605Z,72.50
2018-03-23T07:57:09.175Z,73.40
2018-03-23T07:59:37.740Z,74.30
2018-03-23T08:02:07.040Z,74.20
2018-03-23T08:04:34.696Z,74.70
2018-03-23T08:07:02.362Z,74.90
2018-03-23T08:09:30.256Z,74.80
2018-03-23T08:11:57.848Z,74.50
2018-03-23T08:14:25.448Z,74.10
2018-03-23T08:16:53.040Z,73.80
2018-03-23T08:19:20.668Z,73.60
2018-03-23T08:21:48.215Z,73.70
2018-03-23T08:24:15.756Z,72.70
2018-03-23T08:26:43.324Z,73.20
2018-03-23T08:29:10.891Z,72.50
2018-03-23T08:31:39.256Z,71.90
2018-03-23T08:34:07.672Z,71.90
2018-03-23T08:36:35.721Z,71.50
2018-03-23T08:39:03.309Z,71.10
2018-03-23T08:41:31.007Z,71.00
2018-03-23T08:43:58.591Z,70.70
2018-03-23T08:46:26.168Z,70.20
2018-03-23T08:48:53.756Z,70.00
2018-03-23T08:51:21.329Z,69.50
2018-03-23T08:53:48.971Z,69.40
2018-03-23T08:56:16.542Z,68.70
2018-03-23T08:58:44.111Z,68.10
2018-03-23T09:01:12.476Z,68.30
2018-03-23T09:03:40.374Z,68.20
2018-03-23T09:06:08.015Z,68.40
2018-03-23T09:08:36.312Z,68.70
2018-03-23T09:11:03.967Z,68.30
2018-03-23T09:13:31.605Z,67.60
2018-03-23T09:15:59.296Z,68.10
2018-03-23T09:18:26.880Z,67.30
2018-03-23T09:20:54.546Z,67.60
2018-03-23T09:23:22.855Z,67.20
2018-03-23T09:25:50.591Z,67.10
2018-03-23T09:28:18.170Z,67.60
2018-03-23T09:30:45.791Z,67.00
2018-03-23T09:33:13.330Z,66.90
2018-03-23T09:35:41.773Z,67.40
2018-03-23T09:38:10.153Z,67.20
2018-03-23T09:40:38.775Z,67.20
2018-03-23T09:43:08.343Z,66.40
2018-03-23T09:45:38.092Z,66.20
2018-03-23T09:48:06.432Z,66.90
2018-03-23T09:50:34.130Z,65.30
2018-03-23T09:53:01.827Z,64.60
2018-03-23T09:58:34.689Z,64.00
2018-03-23T10:01:02.275Z,63.10
2018-03-23T10:03:29.910Z,62.60
2018-03-23T10:05:57.751Z,62.50
2018-03-23T10:08:26.280Z,62.30
2018-03-23T10:10:53.916Z,61.50
2018-03-23T10:13:21.489Z,61.70
2018-03-23T10:15:49.836Z,61.90
2018-03-23T10:18:17.456Z,61.90
2018-03-23T10:20:45.798Z,61.40
2018-03-23T10:23:13.370Z,61.50
2018-03-23T10:25:41.776Z,62.20
2018-03-23T10:28:09.363Z,62.20
2018-03-23T10:30:37.832Z,62.10
2018-03-23T10:33:06.783Z,62.20
2018-03-23T10:35:35.820Z,61.60
2018-03-23T10:38:03.851Z,61.60
2018-03-23T10:40:31.499Z,61.70
2018-03-23T10:43:00.009Z,61.60
2018-03-23T10:45:27.611Z,62.20
2018-03-23T10:47:55.187Z,60.50
2018-03-23T10:50:23.574Z,60.90
2018-03-23T10:52:51.895Z,60.70
2018-03-23T10:55:20.276Z,60.80
2018-03-23T10:57:47.859Z,60.70
2018-03-23T11:00:15.459Z,61.40
2018-03-23T11:02:48.730Z,61.30
2018-03-23T11:05:16.326Z,61.00
2018-03-23T11:07:43.900Z,61.40
2018-03-23T11:10:12.235Z,62.30
2018-03-23T11:12:39.861Z,62.30
2018-03-23T11:15:08.020Z,62.40
2018-03-23T11:17:36.313Z,62.40
2018-03-23T11:20:04.823Z,61.60
2018-03-23T11:22:33.222Z,61.30
2018-03-23T11:25:01.601Z,60.90
2018-03-23T11:27:29.297Z,60.90
2018-03-23T11:29:57.057Z,61.20
2018-03-23T11:32:24.671Z,60.40
2018-03-23T11:34:52.269Z,60.90
2018-03-23T11:37:20.601Z,61.30
2018-03-23T11:39:48.555Z,61.90
2018-03-23T11:42:17.171Z,61.40
2018-03-23T11:44:45.137Z,61.40
2018-03-23T11:47:12.736Z,61.00
2018-03-23T11:49:40.764Z,61.50
2018-03-23T11:52:08.408Z,61.70
2018-03-23T11:54:36.882Z,61.70
2018-03-23T11:57:04.499Z,62.30
2018-03-23T11:59:32.839Z,62.60
2018-03-23T12:02:00.456Z,62.80
2018-03-23T12:04:28.034Z,62.70
2018-03-23T12:06:55.951Z,63.10
2018-03-23T12:09:23.579Z,63.50
2018-03-23T12:11:51.163Z,64.20
2018-03-23T12:14:19.554Z,64.60
2018-03-23T12:16:47.068Z,64.50
2018-03-23T12:19:15.472Z,64.20
2018-03-23T12:21:43.065Z,64.30
2018-03-23T12:24:11.500Z,63.80
2018-03-23T12:26:39.650Z,63.90
2018-03-23T12:29:08.755Z,63.80
2018-03-23T12:31:36.861Z,63.80
2018-03-23T12:34:04.479Z,63.70
2018-03-23T12:36:32.055Z,64.50
2018-03-23T12:38:59.774Z,64.80
2018-03-23T12:41:28.171Z,64.40
2018-03-23T12:43:56.565Z,63.50
2018-03-23T12:46:24.241Z,63.50
2018-03-23T12:48:51.858Z,62.60
2018-03-23T12:51:20.090Z,62.80
2018-03-23T12:53:47.753Z,62.50
2018-03-23T12:56:15.358Z,62.60
2018-03-23T12:58:42.934Z,61.40
2018-03-23T13:01:10.515Z,60.60
2018-03-23T13:03:38.292Z,59.70
2018-03-23T13:06:06.981Z,59.70
2018-03-23T13:08:34.587Z,58.90
2018-03-23T13:11:02.903Z,58.20
2018-03-23T13:13:31.285Z,56.50
2018-03-23T13:15:58.905Z,56.70
2018-03-23T13:18:26.493Z,56.50
2018-03-23T13:20:54.065Z,57.50
2018-03-23T13:23:21.651Z,56.60
2018-03-23T13:25:49.241Z,56.60
2018-03-23T13:28:16.836Z,56.10
2018-03-23T13:30:44.433Z,54.80
2018-03-23T13:33:11.971Z,54.70
2018-03-23T13:35:39.525Z,54.60
2018-03-23T13:38:08.194Z,53.30
2018-03-23T13:40:36.833Z,53.30
2018-03-23T13:43:05.641Z,53.80
2018-03-23T13:45:33.216Z,53.80
2018-03-23T13:48:00.816Z,54.90
2018-03-23T13:50:28.421Z,55.10
2018-03-23T13:52:56.053Z,53.90
2018-03-23T13:55:23.784Z,53.30
2018-03-23T13:57:52.111Z,52.70
2018-03-23T14:00:26.140Z,51.30
2018-03-23T14:02:53.703Z,52.00
2018-03-23T14:05:21.275Z,52.00
2018-03-23T14:07:49.661Z,53.00
2018-03-23T14:10:17.568Z,53.10
2018-03-23T14:12:45.946Z,53.10
2018-03-23T14:15:13.556Z,53.10
2018-03-23T14:17:41.201Z,52.10
2018-03-23T14:20:08.804Z,52.00
2018-03-23T14:22:37.023Z,51.60
2018-03-23T14:25:04.574Z,51.70
2018-03-23T14:27:32.171Z,51.30
2018-03-23T14:29:59.740Z,52.00
2018-03-23T14:32:27.366Z,52.20
2018-03-23T14:34:54.942Z,52.30
2018-03-23T14:37:22.483Z,52.20
2018-03-23T14:39:50.089Z,52.70
2018-03-23T14:42:17.723Z,53.60
2018-03-23T14:44:45.323Z,53.60
2018-03-23T14:47:13.660Z,52.40
2018-03-23T14:49:41.314Z,52.40
2018-03-23T14:52:08.986Z,52.50
2018-03-23T14:54:37.869Z,52.80
2018-03-23T14:57:05.681Z,52.80
2018-03-23T14:59:34.416Z,52.40
2018-03-23T15:02:02.016Z,52.20
2018-03-23T15:04:29.638Z,52.90
2018-03-23T15:06:57.211Z,53.10
2018-03-23T15:09:24.860Z,53.10
2018-03-23T15:11:52.402Z,52.60
2018-03-23T15:14:20.020Z,52.00
2018-03-23T15:16:47.635Z,53.90
2018-03-23T15:19:15.572Z,53.60
2018-03-23T15:21:43.163Z,51.60
2018-03-23T15:24:10.731Z,51.70
2018-03-23T15:26:39.091Z,51.30
2018-03-23T15:29:08.818Z,51.90
2018-03-23T15:31:36.964Z,52.00
2018-03-23T15:34:04.582Z,51.60
2018-03-23T15:36:32.947Z,51.60
2018-03-23T15:39:01.281Z,52.20
2018-03-23T15:41:29.424Z,52.20
2018-03-23T15:43:56.997Z,51.40
2018-03-23T15:46:25.354Z,51.50
2018-03-23T15:48:53.653Z,51.30
2018-03-23T15:51:21.590Z,51.40
2018-03-23T15:53:49.146Z,51.80
2018-03-23T15:56:17.693Z,52.40
2018-03-23T15:58:45.326Z,52.30
2018-03-23T16:01:13.883Z,52.80
2018-03-23T16:03:42.664Z,53.10
2018-03-23T16:06:11.001Z,52.70
2018-03-23T16:08:39.537Z,53.90
2018-03-23T16:11:08.777Z,53.40
2018-03-23T16:13:36.853Z,53.40
2018-03-23T16:16:04.513Z,53.20
2018-03-23T16:18:32.352Z,52.50
2018-03-23T16:21:00.781Z,53.10
2018-03-23T16:23:28.398Z,53.30
2018-03-23T16:25:55.995Z,52.30
2018-03-23T16:28:23.570Z,52.70
2018-03-23T16:30:51.206Z,52.50
2018-03-23T16:33:18.834Z,52.70
2018-03-23T16:35:46.412Z,53.20
2018-03-23T16:38:14.035Z,54.70
2018-03-23T16:40:41.665Z,54.10
2018-03-23T16:43:09.591Z,54.20
2018-03-23T16:45:38.092Z,54.30
2018-03-23T16:48:06.595Z,54.50
2018-03-23T16:50:34.902Z,54.30
2018-03-23T16:53:02.899Z,54.40
2018-03-23T16:55:30.493Z,54.40
2018-03-23T16:57:58.062Z,54.70
2018-03-23T17:00:25.682Z,55.10
2018-03-23T17:02:54.051Z,54.90
2018-03-23T17:05:22.417Z,55.10
2018-03-23T17:07:49.989Z,55.20
2018-03-23T17:10:17.612Z,55.00
2018-03-23T17:12:45.240Z,55.20
2018-03-23T17:15:12.886Z,55.60
2018-03-23T17:17:41.337Z,55.60
2018-03-23T17:20:09.226Z,55.60
2018-03-23T17:22:37.434Z,56.40
2018-03-23T17:25:05.673Z,56.40
2018-03-23T17:27:33.300Z,56.90
2018-03-23T17:30:00.871Z,56.30
2018-03-23T17:32:29.235Z,56.90
2018-03-23T17:34:57.675Z,56.80
2018-03-23T17:37:25.562Z,56.80
2018-03-23T17:39:53.139Z,56.30
2018-03-23T17:42:20.740Z,56.60
2018-03-23T17:44:48.321Z,56.90
2018-03-23T17:47:16.297Z,56.70
2018-03-23T17:49:43.935Z,56.70
2018-03-23T17:52:11.630Z,56.90
2018-03-23T17:54:39.232Z,57.00
2018-03-23T17:57:07.806Z,57.30
2018-03-23T17:59:35.648Z,57.40
2018-03-23T18:02:03.282Z,57.50
2018-03-23T18:04:31.686Z,57.40
2018-03-23T18:06:59.259Z,57.50
2018-03-23T18:09:28.038Z,57.70
2018-03-23T18:11:55.669Z,57.70
2018-03-23T18:14:23.250Z,58.00
2018-03-23T18:16:50.895Z,58.00
2018-03-23T18:19:18.557Z,58.10
2018-03-23T18:21:47.022Z,58.10
2018-03-23T18:24:14.606Z,58.10
2018-03-23T18:29:13.023Z,57.90
2018-03-23T18:31:41.409Z,57.80
2018-03-23T18:34:09.037Z,57.70
2018-03-23T18:36:37.708Z,57.80
2018-03-23T18:39:05.680Z,57.80
2018-03-23T18:41:34.039Z,57.80
2018-03-23T18:44:01.642Z,57.80
2018-03-23T18:46:29.268Z,58.00
2018-03-23T18:48:56.856Z,58.20
2018-03-23T18:51:24.480Z,58.00
2018-03-23T18:53:52.219Z,58.30
2018-03-23T18:56:19.803Z,58.20
2018-03-23T18:58:48.203Z,58.00
2018-03-23T19:01:15.811Z,58.00
2018-03-23T19:03:43.418Z,58.00
2018-03-23T19:06:11.777Z,57.60
2018-03-23T19:08:40.208Z,57.70
2018-03-23T19:11:09.274Z,57.70
2018-03-23T19:13:37.340Z,57.90
2018-03-23T19:16:06.543Z,57.60
2018-03-23T19:18:34.962Z,58.80
2018-03-23T19:21:03.824Z,60.00
2018-03-23T19:23:31.465Z,60.00
2018-03-23T19:25:59.039Z,61.60
2018-03-23T19:28:27.407Z,62.20
2018-03-23T19:30:55.035Z,62.30
2018-03-23T19:33:22.605Z,62.20
2018-03-23T19:35:50.213Z,62.20
2018-03-23T19:38:17.846Z,62.20
2018-03-23T19:40:45.474Z,63.10
2018-03-23T19:43:13.162Z,63.20
2018-03-23T19:45:40.752Z,63.10
2018-03-23T19:48:08.361Z,63.40
2018-03-23T19:50:36.676Z,63.40
2018-03-23T19:53:04.456Z,63.80
2018-03-23T19:55:32.817Z,64.10
2018-03-23T19:58:01.142Z,64.10
2018-03-23T20:00:28.818Z,64.10
2018-03-23T20:02:56.492Z,64.60
2018-03-23T20:05:24.188Z,64.50
2018-03-23T20:07:52.553Z,64.40
2018-03-23T20:10:20.264Z,64.30
2018-03-23T20:12:47.899Z,64.10
2018-03-23T20:15:16.258Z,64.30
2018-03-23T20:17:50.402Z,64.10
2018-03-23T20:20:23.624Z,64.10
2018-03-23T20:22:51.272Z,64.00
2018-03-23T20:25:19.621Z,63.90
2018-03-23T20:27:53.281Z,63.90
2018-03-23T20:30:20.848Z,64.10
2018-03-23T20:32:48.414Z,64.60
2018-03-23T20:35:16.017Z,64.40
2018-03-23T20:37:44.377Z,64.40
2018-03-23T20:40:12.724Z,64.60
2018-03-23T20:42:40.282Z,64.60
2018-03-23T20:45:07.886Z,64.50
2018-03-23T20:47:35.472Z,64.90
2018-03-23T20:50:03.238Z,64.40
2018-03-23T20:52:30.857Z,64.80
2018-03-23T20:54:59.201Z,64.90
2018-03-23T20:57:27.648Z,64.90
2018-03-23T20:59:55.245Z,65.20
2018-03-23T21:02:22.857Z,65.30
2018-03-23T21:04:50.600Z,65.20
2018-03-23T21:07:18.226Z,65.10
2018-03-23T21:09:45.835Z,65.20
2018-03-23T21:12:14.163Z,65.30
2018-03-23T21:14:41.764Z,65.30
2018-03-23T21:17:09.331Z,65.20
2018-03-23T21:19:36.920Z,65.00
2018-03-23T21:22:05.409Z,64.80
2018-03-23T21:24:33.027Z,64.90
2018-03-23T21:27:00.611Z,65.10
2018-03-23T21:29:29.642Z,65.40
2018-03-23T21:31:58.224Z,65.50
2018-03-23T21:34:25.985Z,65.70
2018-03-23T21:36:54.326Z,66.30
2018-03-23T21:39:21.874Z,66.20
2018-03-23T21:41:50.248Z,66.10
2018-03-23T21:44:17.816Z,66.10
2018-03-23T21:46:46.180Z,66.30
2018-03-23T21:49:13.767Z,66.50
2018-03-23T21:51:41.351Z,66.30
2018-03-23T21:54:09.306Z,66.60
2018-03-23T21:56:37.648Z,67.10
2018-03-23T21:59:05.259Z,67.10
2018-03-23T22:01:32.912Z,67.40
2018-03-23T22:04:00.472Z,67.20
2018-03-23T22:06:29.455Z,67.10
2018-03-23T22:08:58.615Z,67.20
2018-03-23T22:11:28.740Z,67.50
2018-03-23T22:13:56.806Z,67.40
2018-03-23T22:16:24.414Z,66.80
2018-03-23T22:18:51.983Z,66.80
2018-03-23T22:21:19.634Z,66.90
2018-03-23T22:23:47.259Z,66.40
2018-03-23T22:26:14.815Z,66.90
2018-03-23T22:28:42.404Z,66.80
2018-03-23T22:31:09.960Z,66.20
2018-03-23T22:33:37.983Z,66.30
2018-03-23T22:36:05.550Z,66.40
2018-03-23T22:38:33.176Z,66.20
2018-03-23T22:41:00.789Z,66.50
2018-03-23T22:43:29.250Z,65.50
2018-03-23T22:45:57.629Z,65.60
2018-03-23T22:48:25.929Z,66.20
2018-03-23T22:50:53.639Z,66.20
2018-03-23T22:53:22.061Z,66.30
2018-03-23T22:55:49.665Z,66.60
2018-03-23T22:58:17.666Z,66.40
2018-03-23T23:00:45.252Z,66.40
2018-03-23T23:03:12.863Z,66.80
2018-03-23T23:05:40.425Z,67.00
2018-03-23T23:08:08.025Z,67.10
2018-03-23T23:10:35.580Z,67.10
2018-03-23T23:13:03.232Z,67.00
2018-03-23T23:15:30.849Z,67.00
2018-03-23T23:17:59.257Z,67.10
2018-03-23T23:20:27.530Z,67.20
2018-03-23T23:22:55.996Z,66.80
2018-03-23T23:25:23.575Z,66.90
2018-03-23T23:27:51.928Z,67.60
2018-03-23T23:30:20.284Z,67.50
2018-03-23T23:32:48.634Z,67.40
2018-03-23T23:35:24.015Z,67.40
2018-03-23T23:37:52.159Z,67.20
2018-03-23T23:40:19.792Z,67.70
2018-03-23T23:42:47.347Z,67.40
2018-03-23T23:45:14.985Z,67.50
2018-03-23T23:47:42.590Z,67.50
2018-03-23T23:50:10.242Z,67.60
2018-03-23T23:52:38.212Z,67.60
2018-03-23T23:55:05.850Z,67.60
2018-03-23T23:57:33.401Z,67.70
